New Braunfels, TX (78132)

8:57 PM CDT on July 30, 2016 (GMT -0500)
River Road nr 1st Crossing | | Change Station

Elev 672 ft 29.75 °N, 98.15 °W | Updated 2 minutes ago

Mostly Cloudy
Mostly Cloudy
86.9 °F
Feels Like 94 °F
N
1.0
Wind Variable Wind from SSW
Gusts 7.0 mph

Today
High -- | Low -- °F
--% Chance of Precip.
Yesterday
High -- | Low -- °F
Precip. -- in
Pressure 29.90 in
Visibility -9999.0 miles
Clouds Mostly Cloudy 7000 ft
Heat Index 94 °F
Dew Point 73 °F
Humidity 63%
Rainfall 0.00 in
Snow Depth Not available.
6:51 AM 8:26 PM
Waning Crescent, 9% visible
METAR KBAZ 310151Z AUTO 17009KT BKN070 31/22 A2993 RMK AO2 SLP124 T03110222 $
Pressure 29.90 in
Visibility -9999.0 miles
Clouds Mostly Cloudy 7000 ft
Heat Index 94 °F
Dew Point 73 °F
Humidity 63%
Rainfall 0.00 in
Snow Depth Not available.
6:51 AM 8:26 PM
Waning Crescent, 9% visible
METAR KBAZ 310151Z AUTO 17009KT BKN070 31/22 A2993 RMK AO2 SLP124 T03110222 $

10-Day Weather Forecast

Almanac

Astronomy

Jul. 30, 2016 Rise Set
Actual Time
Civil Twilight
Nautical Twilight
Astronomical Twilight
Moon
Length of Visible Light
Length of Day
Tomorrow will be .
, % of the Moon is Illuminated

Today's Extremes

State Highs State Lows

Community

WunderPhotos

Upload Photos

1,928,702 photos uploaded!

WunderBlog® & News

Nearby

Air Quality

  Air Quality AQ Index Pollutant
Not available.

Snow Depth

Station Depth Elevation

Earthquake Activity

City Distance Mag. Time & Date
Minimum magnitude displayed is 2.5.

Coastal Water Temperatures

Place Temperature

Stations

Nearby Weather Stations

Station Location Temp. Windchill Dew Point Humidity Wind Precip. Elev Updated Type
                   

Watches & Warnings

There are currently no watches in effect.